sensor_id;sensor_type;location;lat;lon;timestamp;pressure;altitude;pressure_sealevel;temperature;humidity
73501;BME280;61721;42.206;25.320;2023-05-10T00:00:56;100045.69;;;12.33;68.75
73501;BME280;61721;42.206;25.320;2023-05-10T00:03:32;100045.81;;;12.07;69.23
73501;BME280;61721;42.206;25.320;2023-05-10T00:06:08;100047.44;;;11.84;70.74
73501;BME280;61721;42.206;25.320;2023-05-10T00:08:44;100044.16;;;11.72;70.75
73501;BME280;61721;42.206;25.320;2023-05-10T00:11:21;100043.53;;;11.78;70.92
73501;BME280;61721;42.206;25.320;2023-05-10T00:13:59;100046.09;;;11.88;69.96
73501;BME280;61721;42.206;25.320;2023-05-10T00:16:36;100041.00;;;12.43;68.07
73501;BME280;61721;42.206;25.320;2023-05-10T00:19:12;100041.56;;;11.96;69.04
73501;BME280;61721;42.206;25.320;2023-05-10T00:21:48;100029.13;;;11.69;69.34
73501;BME280;61721;42.206;25.320;2023-05-10T00:24:24;100020.34;;;11.67;70.35
73501;BME280;61721;42.206;25.320;2023-05-10T00:27:00;100021.06;;;11.35;71.00
73501;BME280;61721;42.206;25.320;2023-05-10T00:29:38;100024.59;;;11.70;70.30
73501;BME280;61721;42.206;25.320;2023-05-10T00:32:15;100021.91;;;12.37;67.67
73501;BME280;61721;42.206;25.320;2023-05-10T00:34:51;100027.03;;;11.89;68.59
73501;BME280;61721;42.206;25.320;2023-05-10T00:37:27;100033.03;;;11.75;69.46
73501;BME280;61721;42.206;25.320;2023-05-10T00:40:03;100035.38;;;11.70;68.97
73501;BME280;61721;42.206;25.320;2023-05-10T00:42:40;100027.91;;;11.56;70.40
73501;BME280;61721;42.206;25.320;2023-05-10T00:45:18;100028.75;;;11.56;69.21
73501;BME280;61721;42.206;25.320;2023-05-10T00:47:56;100031.00;;;12.19;67.71
73501;BME280;61721;42.206;25.320;2023-05-10T00:50:33;100025.09;;;12.16;66.73
73501;BME280;61721;42.206;25.320;2023-05-10T00:53:09;100023.63;;;11.79;68.04
73501;BME280;61721;42.206;25.320;2023-05-10T00:55:45;100030.88;;;11.45;69.73
73501;BME280;61721;42.206;25.320;2023-05-10T00:58:22;100032.28;;;11.57;68.91
73501;BME280;61721;42.206;25.320;2023-05-10T01:01:14;100026.63;;;11.34;69.49
73501;BME280;61721;42.206;25.320;2023-05-10T01:03:51;100027.34;;;11.78;68.53
73501;BME280;61721;42.206;25.320;2023-05-10T01:06:28;100023.19;;;11.58;68.40
73501;BME280;61721;42.206;25.320;2023-05-10T01:09:05;100017.72;;;11.42;69.65
73501;BME280;61721;42.206;25.320;2023-05-10T01:11:42;100019.72;;;11.39;69.47
73501;BME280;61721;42.206;25.320;2023-05-10T01:14:19;100015.94;;;11.24;69.47
73501;BME280;61721;42.206;25.320;2023-05-10T01:16:57;100019.59;;;11.83;67.86
73501;BME280;61721;42.206;25.320;2023-05-10T01:19:34;100020.63;;;11.82;67.71
73501;BME280;61721;42.206;25.320;2023-05-10T01:22:26;100017.69;;;11.33;68.96
73501;BME280;61721;42.206;25.320;2023-05-10T01:25:24;100012.47;;;11.40;68.66
73501;BME280;61721;42.206;25.320;2023-05-10T01:28:17;100016.38;;;11.46;69.23
73501;BME280;61721;42.206;25.320;2023-05-10T01:31:17;100013.72;;;11.54;69.08
73501;BME280;61721;42.206;25.320;2023-05-10T01:33:59;100016.22;;;11.81;68.43
73501;BME280;61721;42.206;25.320;2023-05-10T01:36:43;100012.97;;;12.52;66.45
73501;BME280;61721;42.206;25.320;2023-05-10T01:39:25;100012.59;;;12.23;66.37
73501;BME280;61721;42.206;25.320;2023-05-10T01:42:14;100017.16;;;12.14;66.42
73501;BME280;61721;42.206;25.320;2023-05-10T01:44:55;100017.47;;;12.03;67.06
73501;BME280;61721;42.206;25.320;2023-05-10T01:47:38;100015.44;;;11.97;67.29
73501;BME280;61721;42.206;25.320;2023-05-10T01:50:23;100005.34;;;12.15;66.89
73501;BME280;61721;42.206;25.320;2023-05-10T01:53:02;100008.91;;;12.48;66.11
73501;BME280;61721;42.206;25.320;2023-05-10T01:55:43;100001.06;;;11.88;67.11
73501;BME280;61721;42.206;25.320;2023-05-10T01:58:25;100007.72;;;11.68;67.96
73501;BME280;61721;42.206;25.320;2023-05-10T02:01:04;100009.25;;;11.70;68.62
73501;BME280;61721;42.206;25.320;2023-05-10T02:03:43;100001.28;;;11.61;68.19
73501;BME280;61721;42.206;25.320;2023-05-10T02:06:22;100015.75;;;11.94;67.90
73501;BME280;61721;42.206;25.320;2023-05-10T02:09:00;100016.50;;;12.45;65.80
73501;BME280;61721;42.206;25.320;2023-05-10T02:11:37;100013.13;;;12.26;65.65
73501;BME280;61721;42.206;25.320;2023-05-10T02:14:14;100009.03;;;12.06;65.81
73501;BME280;61721;42.206;25.320;2023-05-10T02:16:51;100016.13;;;12.07;66.09
73501;BME280;61721;42.206;25.320;2023-05-10T02:19:30;100008.41;;;12.45;64.92
73501;BME280;61721;42.206;25.320;2023-05-10T02:22:09;100006.22;;;12.73;63.73
73501;BME280;61721;42.206;25.320;2023-05-10T02:25:10;100010.78;;;12.40;64.38
73501;BME280;61721;42.206;25.320;2023-05-10T02:27:48;100010.09;;;12.38;64.57
73501;BME280;61721;42.206;25.320;2023-05-10T02:30:25;100012.78;;;12.38;64.29
73501;BME280;61721;42.206;25.320;2023-05-10T02:33:04;100008.41;;;12.37;64.36
73501;BME280;61721;42.206;25.320;2023-05-10T02:35:41;100006.91;;;12.58;63.31
73501;BME280;61721;42.206;25.320;2023-05-10T02:38:22;100007.91;;;12.57;63.62
73501;BME280;61721;42.206;25.320;2023-05-10T02:41:00;100005.72;;;12.53;63.71
73501;BME280;61721;42.206;25.320;2023-05-10T02:43:37;100002.50;;;12.41;63.40
73501;BME280;61721;42.206;25.320;2023-05-10T02:46:15;99996.09;;;12.34;63.85
73501;BME280;61721;42.206;25.320;2023-05-10T02:48:51;100004.03;;;12.52;63.32
73501;BME280;61721;42.206;25.320;2023-05-10T02:51:31;100006.38;;;12.55;63.27
73501;BME280;61721;42.206;25.320;2023-05-10T02:54:12;100003.84;;;12.45;63.57
73501;BME280;61721;42.206;25.320;2023-05-10T02:56:58;100005.88;;;12.43;63.33
73501;BME280;61721;42.206;25.320;2023-05-10T02:59:35;100009.59;;;12.58;63.12
73501;BME280;61721;42.206;25.320;2023-05-10T03:02:12;100009.59;;;12.58;63.09
73501;BME280;61721;42.206;25.320;2023-05-10T03:04:49;100013.97;;;12.35;63.47
73501;BME280;61721;42.206;25.320;2023-05-10T03:07:25;100007.56;;;12.28;64.03
73501;BME280;61721;42.206;25.320;2023-05-10T03:10:05;100008.56;;;12.35;63.84
73501;BME280;61721;42.206;25.320;2023-05-10T03:12:50;100010.44;;;12.34;63.42
73501;BME280;61721;42.206;25.320;2023-05-10T03:15:37;100011.44;;;12.33;63.52
73501;BME280;61721;42.206;25.320;2023-05-10T03:18:16;100015.84;;;12.51;63.11
73501;BME280;61721;42.206;25.320;2023-05-10T03:20:57;100020.91;;;12.38;63.38
73501;BME280;61721;42.206;25.320;2023-05-10T03:23:41;100016.00;;;12.49;62.88
73501;BME280;61721;42.206;25.320;2023-05-10T03:26:24;100018.22;;;12.54;62.57
73501;BME280;61721;42.206;25.320;2023-05-10T03:29:02;100006.91;;;12.50;62.28
73501;BME280;61721;42.206;25.320;2023-05-10T03:31:40;100017.19;;;12.39;62.54
73501;BME280;61721;42.206;25.320;2023-05-10T03:34:16;100015.84;;;12.43;62.27
73501;BME280;61721;42.206;25.320;2023-05-10T03:36:52;100015.00;;;12.42;62.74
73501;BME280;61721;42.206;25.320;2023-05-10T03:39:28;100023.78;;;12.44;62.65
73501;BME280;61721;42.206;25.320;2023-05-10T03:42:06;100014.31;;;12.24;62.02
73501;BME280;61721;42.206;25.320;2023-05-10T03:44:46;100017.38;;;12.53;61.53
73501;BME280;61721;42.206;25.320;2023-05-10T03:47:24;100023.91;;;12.18;62.42
73501;BME280;61721;42.206;25.320;2023-05-10T03:50:00;100023.44;;;12.39;62.04
73501;BME280;61721;42.206;25.320;2023-05-10T03:52:36;100032.06;;;12.59;61.64
73501;BME280;61721;42.206;25.320;2023-05-10T03:55:13;100020.34;;;11.67;64.15
73501;BME280;61721;42.206;25.320;2023-05-10T03:57:52;100027.34;;;11.78;64.25
73501;BME280;61721;42.206;25.320;2023-05-10T04:00:35;100033.78;;;11.85;64.85
73501;BME280;61721;42.206;25.320;2023-05-10T04:03:16;100032.81;;;12.02;63.61
73501;BME280;61721;42.206;25.320;2023-05-10T04:05:59;100041.75;;;12.03;64.01
73501;BME280;61721;42.206;25.320;2023-05-10T04:08:36;100034.25;;;12.55;62.72
73501;BME280;61721;42.206;25.320;2023-05-10T04:11:12;100031.50;;;12.23;62.25
73501;BME280;61721;42.206;25.320;2023-05-10T04:13:50;100039.22;;;11.59;65.15
73501;BME280;61721;42.206;25.320;2023-05-10T04:19:46;100047.28;;;11.93;63.99
73501;BME280;61721;42.206;25.320;2023-05-10T04:22:25;100047.97;;;11.95;63.18
73501;BME280;61721;42.206;25.320;2023-05-10T04:25:03;100055.09;;;12.05;63.20
73501;BME280;61721;42.206;25.320;2023-05-10T04:27:40;100051.41;;;12.22;62.95
73501;BME280;61721;42.206;25.320;2023-05-10T04:30:19;100050.38;;;12.07;63.46
73501;BME280;61721;42.206;25.320;2023-05-10T04:32:55;100052.44;;;12.29;62.68
73501;BME280;61721;42.206;25.320;2023-05-10T04:35:35;100051.13;;;12.57;61.35
73501;BME280;61721;42.206;25.320;2023-05-10T04:38:12;100050.78;;;12.52;61.03
73501;BME280;61721;42.206;25.320;2023-05-10T04:40:49;100056.66;;;12.31;61.13
73501;BME280;61721;42.206;25.320;2023-05-10T04:43:26;100054.13;;;12.22;61.84
73501;BME280;61721;42.206;25.320;2023-05-10T04:46:05;100053.09;;;12.23;62.83
73501;BME280;61721;42.206;25.320;2023-05-10T04:48:42;100057.16;;;12.27;61.58
73501;BME280;61721;42.206;25.320;2023-05-10T04:51:18;100063.97;;;12.63;60.44
73501;BME280;61721;42.206;25.320;2023-05-10T04:53:54;100059.41;;;12.48;60.70
73501;BME280;61721;42.206;25.320;2023-05-10T04:56:30;100064.56;;;12.17;61.84
73501;BME280;61721;42.206;25.320;2023-05-10T04:59:06;100052.44;;;12.29;61.87
73501;BME280;61721;42.206;25.320;2023-05-10T05:01:44;100059.44;;;11.97;62.39
73501;BME280;61721;42.206;25.320;2023-05-10T05:04:23;100051.63;;;12.45;61.39
73501;BME280;61721;42.206;25.320;2023-05-10T05:06:59;100057.56;;;12.97;60.03
73501;BME280;61721;42.206;25.320;2023-05-10T05:09:35;100063.59;;;12.34;61.18
73501;BME280;61721;42.206;25.320;2023-05-10T05:12:11;100065.59;;;12.16;62.17
73501;BME280;61721;42.206;25.320;2023-05-10T05:14:47;100058.22;;;12.42;61.24
73501;BME280;61721;42.206;25.320;2023-05-10T05:17:26;100059.44;;;11.89;62.93
73501;BME280;61721;42.206;25.320;2023-05-10T05:20:04;100058.28;;;12.00;62.56
73501;BME280;61721;42.206;25.320;2023-05-10T05:22:40;100060.22;;;12.40;61.62
73501;BME280;61721;42.206;25.320;2023-05-10T05:25:16;100061.25;;;12.47;60.88
73501;BME280;61721;42.206;25.320;2023-05-10T05:27:52;100070.88;;;12.42;61.37
73501;BME280;61721;42.206;25.320;2023-05-10T05:30:28;100067.00;;;12.44;60.76
73501;BME280;61721;42.206;25.320;2023-05-10T05:33:07;100071.88;;;12.32;61.48
73501;BME280;61721;42.206;25.320;2023-05-10T05:35:52;100074.09;;;12.53;60.87
73501;BME280;61721;42.206;25.320;2023-05-10T05:38:29;100074.09;;;13.18;58.83
73501;BME280;61721;42.206;25.320;2023-05-10T05:41:06;100067.16;;;12.51;60.45
73501;BME280;61721;42.206;25.320;2023-05-10T05:43:51;100074.59;;;12.65;60.33
73501;BME280;61721;42.206;25.320;2023-05-10T05:46:28;100070.72;;;12.92;59.13
73501;BME280;61721;42.206;25.320;2023-05-10T05:49:06;100070.38;;;12.54;60.12
73501;BME280;61721;42.206;25.320;2023-05-10T05:51:43;100071.72;;;12.58;60.28
73501;BME280;61721;42.206;25.320;2023-05-10T05:54:20;100074.91;;;13.11;58.29
73501;BME280;61721;42.206;25.320;2023-05-10T05:57:04;100065.28;;;13.08;58.23
73501;BME280;61721;42.206;25.320;2023-05-10T05:59:42;100068.84;;;12.52;60.30
73501;BME280;61721;42.206;25.320;2023-05-10T06:02:19;100075.56;;;12.23;61.36
73501;BME280;61721;42.206;25.320;2023-05-10T06:04:57;100079.63;;;12.35;60.35
73501;BME280;61721;42.206;25.320;2023-05-10T06:07:34;100080.84;;;12.57;60.53
73501;BME280;61721;42.206;25.320;2023-05-10T06:10:10;100081.50;;;13.24;58.89
73501;BME280;61721;42.206;25.320;2023-05-10T06:12:56;100088.44;;;13.02;58.55
73501;BME280;61721;42.206;25.320;2023-05-10T06:15:32;100090.00;;;12.97;58.51
73501;BME280;61721;42.206;25.320;2023-05-10T06:18:08;100092.44;;;12.33;59.74
73501;BME280;61721;42.206;25.320;2023-05-10T06:20:49;100089.97;;;12.64;60.21
73501;BME280;61721;42.206;25.320;2023-05-10T06:23:27;100084.88;;;13.02;59.22
73501;BME280;61721;42.206;25.320;2023-05-10T06:26:03;100093.84;;;13.35;58.19
73501;BME280;61721;42.206;25.320;2023-05-10T06:28:39;100097.56;;;12.69;60.27
73501;BME280;61721;42.206;25.320;2023-05-10T06:31:15;100093.03;;;12.86;59.69
73501;BME280;61721;42.206;25.320;2023-05-10T06:33:51;100101.09;;;13.02;59.04
73501;BME280;61721;42.206;25.320;2023-05-10T06:36:29;100098.59;;;12.92;59.76
73501;BME280;61721;42.206;25.320;2023-05-10T06:39:06;100104.81;;;13.42;58.29
73501;BME280;61721;42.206;25.320;2023-05-10T06:41:44;100104.31;;;13.30;58.83
73501;BME280;61721;42.206;25.320;2023-05-10T06:44:20;100106.84;;;13.40;58.02
73501;BME280;61721;42.206;25.320;2023-05-10T06:46:56;100102.78;;;13.36;58.54
73501;BME280;61721;42.206;25.320;2023-05-10T06:49:32;100105.19;;;13.86;57.00
73501;BME280;61721;42.206;25.320;2023-05-10T06:52:10;100102.47;;;13.94;56.84
73501;BME280;61721;42.206;25.320;2023-05-10T06:54:47;100100.06;;;13.99;57.25
73501;BME280;61721;42.206;25.320;2023-05-10T06:57:23;100097.59;;;13.81;56.98
73501;BME280;61721;42.206;25.320;2023-05-10T07:00:08;100088.03;;;13.62;57.93
73501;BME280;61721;42.206;25.320;2023-05-10T07:02:46;100096.22;;;13.85;56.85
73501;BME280;61721;42.206;25.320;2023-05-10T07:05:23;100093.09;;;13.57;57.04
73501;BME280;61721;42.206;25.320;2023-05-10T07:08:03;100096.44;;;13.76;56.61
73501;BME280;61721;42.206;25.320;2023-05-10T07:10:41;100092.75;;;14.08;56.71
73501;BME280;61721;42.206;25.320;2023-05-10T07:13:17;100090.66;;;13.79;56.80
73501;BME280;61721;42.206;25.320;2023-05-10T07:15:53;100089.81;;;14.17;56.40
73501;BME280;61721;42.206;25.320;2023-05-10T07:18:29;100096.78;;;14.12;56.59
73501;BME280;61721;42.206;25.320;2023-05-10T07:21:05;100094.00;;;13.97;57.19
73501;BME280;61721;42.206;25.320;2023-05-10T07:23:43;100097.16;;;14.09;55.86
73501;BME280;61721;42.206;25.320;2023-05-10T07:26:20;100095.88;;;14.27;55.54
73501;BME280;61721;42.206;25.320;2023-05-10T07:28:56;100094.97;;;14.35;55.43
73501;BME280;61721;42.206;25.320;2023-05-10T07:31:33;100092.22;;;14.12;55.92
73501;BME280;61721;42.206;25.320;2023-05-10T07:34:09;100099.06;;;14.62;55.30
73501;BME280;61721;42.206;25.320;2023-05-10T07:36:45;100094.56;;;14.54;54.09
73501;BME280;61721;42.206;25.320;2023-05-10T07:39:23;100098.84;;;14.41;55.82
73501;BME280;61721;42.206;25.320;2023-05-10T07:42:00;100107.38;;;14.60;55.36
73501;BME280;61721;42.206;25.320;2023-05-10T07:44:36;100101.84;;;14.15;55.89
73501;BME280;61721;42.206;25.320;2023-05-10T07:47:12;100098.03;;;14.32;55.17
73501;BME280;61721;42.206;25.320;2023-05-10T07:49:48;100099.50;;;14.74;55.06
73501;BME280;61721;42.206;25.320;2023-05-10T07:52:24;100103.16;;;14.27;55.24
73501;BME280;61721;42.206;25.320;2023-05-10T07:55:03;100109.66;;;14.49;55.47
73501;BME280;61721;42.206;25.320;2023-05-10T07:57:39;100110.59;;;14.87;53.60
73501;BME280;61721;42.206;25.320;2023-05-10T08:00:18;100112.22;;;14.96;54.55
73501;BME280;61721;42.206;25.320;2023-05-10T08:02:54;100115.50;;;14.60;54.42
73501;BME280;61721;42.206;25.320;2023-05-10T08:05:31;100109.28;;;15.20;53.60
73501;BME280;61721;42.206;25.320;2023-05-10T08:08:07;100111.34;;;14.50;54.17
73501;BME280;61721;42.206;25.320;2023-05-10T08:10:46;100118.94;;;15.00;52.99
73501;BME280;61721;42.206;25.320;2023-05-10T08:13:22;100119.91;;;15.07;52.66
73501;BME280;61721;42.206;25.320;2023-05-10T08:15:58;100117.97;;;15.16;52.43
73501;BME280;61721;42.206;25.320;2023-05-10T08:18:34;100116.84;;;14.65;53.86
73501;BME280;61721;42.206;25.320;2023-05-10T08:21:10;100118.16;;;14.69;53.59
73501;BME280;61721;42.206;25.320;2023-05-10T08:23:46;100122.56;;;15.15;53.08
73501;BME280;61721;42.206;25.320;2023-05-10T08:26:25;100129.03;;;14.91;53.49
73501;BME280;61721;42.206;25.320;2023-05-10T08:29:01;100126.00;;;15.09;53.55
73501;BME280;61721;42.206;25.320;2023-05-10T08:31:37;100133.22;;;14.40;54.74
73501;BME280;61721;42.206;25.320;2023-05-10T08:34:13;100133.91;;;14.96;54.30
73501;BME280;61721;42.206;25.320;2023-05-10T08:36:49;100137.25;;;15.21;53.65
73501;BME280;61721;42.206;25.320;2023-05-10T08:39:25;100126.19;;;15.08;54.16
73501;BME280;61721;42.206;25.320;2023-05-10T08:42:05;100130.81;;;15.89;52.06
73501;BME280;61721;42.206;25.320;2023-05-10T08:44:43;100133.88;;;15.71;50.83
73501;BME280;61721;42.206;25.320;2023-05-10T08:47:19;100129.63;;;15.39;51.45
73501;BME280;61721;42.206;25.320;2023-05-10T08:49:57;100133.47;;;15.45;50.92
73501;BME280;61721;42.206;25.320;2023-05-10T08:52:38;100138.47;;;15.85;50.18
73501;BME280;61721;42.206;25.320;2023-05-10T08:55:16;100128.19;;;15.81;50.16
73501;BME280;61721;42.206;25.320;2023-05-10T08:58:01;100125.25;;;15.53;51.10
73501;BME280;61721;42.206;25.320;2023-05-10T09:00:37;100130.34;;;15.85;50.40
73501;BME280;61721;42.206;25.320;2023-05-10T09:03:20;100130.13;;;16.02;51.26
73501;BME280;61721;42.206;25.320;2023-05-10T09:05:55;100124.91;;;15.71;50.61
73501;BME280;61721;42.206;25.320;2023-05-10T09:08:33;100129.19;;;15.50;50.59
73501;BME280;61721;42.206;25.320;2023-05-10T09:11:11;100121.09;;;16.45;49.48
73501;BME280;61721;42.206;25.320;2023-05-10T09:13:51;100123.47;;;16.19;49.36
73501;BME280;61721;42.206;25.320;2023-05-10T09:16:28;100118.00;;;16.34;50.22
73501;BME280;61721;42.206;25.320;2023-05-10T09:19:04;100126.03;;;16.06;50.45
73501;BME280;61721;42.206;25.320;2023-05-10T09:21:40;100115.81;;;15.93;50.56
73501;BME280;61721;42.206;25.320;2023-05-10T09:24:17;100119.19;;;15.95;51.45
73501;BME280;61721;42.206;25.320;2023-05-10T09:26:53;100116.94;;;16.49;50.01
73501;BME280;61721;42.206;25.320;2023-05-10T09:29:42;100125.69;;;16.81;49.21
73501;BME280;61721;42.206;25.320;2023-05-10T09:32:18;100119.31;;;16.38;50.06
73501;BME280;61721;42.206;25.320;2023-05-10T09:34:54;100119.63;;;16.28;48.04
73501;BME280;61721;42.206;25.320;2023-05-10T09:37:31;100120.75;;;15.08;50.89
73501;BME280;61721;42.206;25.320;2023-05-10T09:40:10;100118.22;;;15.44;49.42
73501;BME280;61721;42.206;25.320;2023-05-10T09:42:55;100116.66;;;15.64;49.08
73501;BME280;61721;42.206;25.320;2023-05-10T09:45:35;100106.72;;;15.71;50.58
73501;BME280;61721;42.206;25.320;2023-05-10T09:48:11;100107.75;;;16.50;47.99
73501;BME280;61721;42.206;25.320;2023-05-10T09:50:55;100110.75;;;15.08;50.52
73501;BME280;61721;42.206;25.320;2023-05-10T09:53:40;100098.97;;;15.68;48.55
73501;BME280;61721;42.206;25.320;2023-05-10T09:56:34;100098.47;;;16.09;49.05
73501;BME280;61721;42.206;25.320;2023-05-10T09:59:12;100089.44;;;16.59;47.83
73501;BME280;61721;42.206;25.320;2023-05-10T10:01:55;100090.44;;;16.01;47.30
73501;BME280;61721;42.206;25.320;2023-05-10T10:04:32;100088.66;;;15.93;47.58
73501;BME280;61721;42.206;25.320;2023-05-10T10:07:14;100084.63;;;16.97;45.57
73501;BME280;61721;42.206;25.320;2023-05-10T10:09:51;100082.88;;;16.90;45.43
73501;BME280;61721;42.206;25.320;2023-05-10T10:12:27;100077.63;;;16.88;47.34
73501;BME280;61721;42.206;25.320;2023-05-10T10:15:04;100079.00;;;16.99;46.55
73501;BME280;61721;42.206;25.320;2023-05-10T10:17:43;100079.66;;;17.29;46.11
73501;BME280;61721;42.206;25.320;2023-05-10T10:20:20;100075.91;;;17.30;45.41
73501;BME280;61721;42.206;25.320;2023-05-10T10:22:57;100071.88;;;16.98;46.29
73501;BME280;61721;42.206;25.320;2023-05-10T10:25:33;100061.38;;;16.95;45.60
73501;BME280;61721;42.206;25.320;2023-05-10T10:28:22;100070.94;;;17.40;44.11
73501;BME280;61721;42.206;25.320;2023-05-10T10:31:11;100056.72;;;17.44;44.37
73501;BME280;61721;42.206;25.320;2023-05-10T10:34:00;100064.38;;;17.62;45.33
73501;BME280;61721;42.206;25.320;2023-05-10T10:36:45;100056.00;;;17.01;46.08
73501;BME280;61721;42.206;25.320;2023-05-10T10:39:21;100069.84;;;17.62;45.92
73501;BME280;61721;42.206;25.320;2023-05-10T10:41:58;100063.75;;;17.95;45.01
73501;BME280;61721;42.206;25.320;2023-05-10T10:44:37;100063.59;;;18.03;43.83
73501;BME280;61721;42.206;25.320;2023-05-10T10:47:23;100058.25;;;17.81;43.70
73501;BME280;61721;42.206;25.320;2023-05-10T10:50:06;100057.44;;;17.88;43.83
73501;BME280;61721;42.206;25.320;2023-05-10T10:52:45;100050.00;;;18.16;43.65
73501;BME280;61721;42.206;25.320;2023-05-10T10:55:21;100053.38;;;18.31;42.92
73501;BME280;61721;42.206;25.320;2023-05-10T10:57:59;100056.72;;;18.20;43.28
73501;BME280;61721;42.206;25.320;2023-05-10T11:00:43;100057.41;;;18.42;42.74
73501;BME280;61721;42.206;25.320;2023-05-10T11:03:19;100054.41;;;18.17;42.74
73501;BME280;61721;42.206;25.320;2023-05-10T11:06:00;100044.56;;;18.29;42.14
73501;BME280;61721;42.206;25.320;2023-05-10T11:08:42;100050.25;;;18.34;43.39
73501;BME280;61721;42.206;25.320;2023-05-10T11:11:20;100056.94;;;17.15;43.73
73501;BME280;61721;42.206;25.320;2023-05-10T11:14:03;100056.78;;;16.95;44.69
73501;BME280;61721;42.206;25.320;2023-05-10T11:16:43;100062.03;;;17.25;44.28
73501;BME280;61721;42.206;25.320;2023-05-10T11:19:20;100053.63;;;17.19;43.94
73501;BME280;61721;42.206;25.320;2023-05-10T11:24:59;100062.56;;;16.49;46.71
73501;BME280;61721;42.206;25.320;2023-05-10T11:27:37;100051.41;;;17.30;44.91
73501;BME280;61721;42.206;25.320;2023-05-10T11:30:14;100053.38;;;17.42;43.88
73501;BME280;61721;42.206;25.320;2023-05-10T11:32:50;100053.38;;;17.14;44.08
73501;BME280;61721;42.206;25.320;2023-05-10T11:35:28;100051.88;;;17.40;44.83
73501;BME280;61721;42.206;25.320;2023-05-10T11:38:05;100043.72;;;18.22;43.12
73501;BME280;61721;42.206;25.320;2023-05-10T11:40:44;100039.63;;;17.57;43.16
73501;BME280;61721;42.206;25.320;2023-05-10T11:43:24;100038.94;;;17.76;43.45
73501;BME280;61721;42.206;25.320;2023-05-10T11:46:04;100025.03;;;17.30;43.22
73501;BME280;61721;42.206;25.320;2023-05-10T11:48:41;100034.00;;;17.93;42.94
73501;BME280;61721;42.206;25.320;2023-05-10T11:51:21;100028.94;;;17.90;42.59
73501;BME280;61721;42.206;25.320;2023-05-10T11:54:06;100021.66;;;17.63;43.74
73501;BME280;61721;42.206;25.320;2023-05-10T11:56:45;100016.00;;;18.05;42.78
73501;BME280;61721;42.206;25.320;2023-05-10T11:59:22;100027.19;;;17.13;45.96
73501;BME280;61721;42.206;25.320;2023-05-10T12:01:58;100019.41;;;18.27;43.92
73501;BME280;61721;42.206;25.320;2023-05-10T12:04:35;100015.97;;;17.99;43.09
73501;BME280;61721;42.206;25.320;2023-05-10T12:07:11;100020.69;;;18.44;43.01
73501;BME280;61721;42.206;25.320;2023-05-10T12:10:02;100019.50;;;18.80;42.84
73501;BME280;61721;42.206;25.320;2023-05-10T12:12:41;100011.53;;;18.72;41.10
73501;BME280;61721;42.206;25.320;2023-05-10T12:15:19;100000.22;;;18.88;42.21
73501;BME280;61721;42.206;25.320;2023-05-10T12:17:56;99991.31;;;18.20;42.23
73501;BME280;61721;42.206;25.320;2023-05-10T12:20:33;99999.88;;;18.04;42.23
73501;BME280;61721;42.206;25.320;2023-05-10T12:23:09;99992.47;;;17.91;43.57
73501;BME280;61721;42.206;25.320;2023-05-10T12:25:47;99990.34;;;18.80;43.56
73501;BME280;61721;42.206;25.320;2023-05-10T12:28:30;99994.28;;;18.45;41.83
73501;BME280;61721;42.206;25.320;2023-05-10T12:31:06;99987.56;;;18.54;42.35
73501;BME280;61721;42.206;25.320;2023-05-10T12:33:43;99982.97;;;19.07;40.66
73501;BME280;61721;42.206;25.320;2023-05-10T12:36:23;99979.00;;;19.03;42.46
73501;BME280;61721;42.206;25.320;2023-05-10T12:39:02;99971.22;;;18.54;41.47
73501;BME280;61721;42.206;25.320;2023-05-10T12:41:40;99981.09;;;18.88;41.43
73501;BME280;61721;42.206;25.320;2023-05-10T12:44:19;99970.72;;;17.98;42.03
73501;BME280;61721;42.206;25.320;2023-05-10T12:46:56;99966.16;;;18.51;42.52
73501;BME280;61721;42.206;25.320;2023-05-10T12:49:34;99972.00;;;18.15;43.08
73501;BME280;61721;42.206;25.320;2023-05-10T12:52:11;99968.72;;;18.79;42.17
73501;BME280;61721;42.206;25.320;2023-05-10T12:54:47;99968.28;;;18.56;41.51
73501;BME280;61721;42.206;25.320;2023-05-10T12:57:23;99963.91;;;18.68;41.07
73501;BME280;61721;42.206;25.320;2023-05-10T13:00:10;99959.22;;;18.15;41.70
73501;BME280;61721;42.206;25.320;2023-05-10T13:02:46;99951.69;;;18.17;41.13
73501;BME280;61721;42.206;25.320;2023-05-10T13:05:23;99949.78;;;18.38;41.04
73501;BME280;61721;42.206;25.320;2023-05-10T13:07:59;99944.34;;;19.04;39.74
73501;BME280;61721;42.206;25.320;2023-05-10T13:10:35;99937.47;;;18.75;40.84
73501;BME280;61721;42.206;25.320;2023-05-10T13:13:11;99934.66;;;17.96;40.42
73501;BME280;61721;42.206;25.320;2023-05-10T13:15:49;99931.13;;;18.28;41.18
73501;BME280;61721;42.206;25.320;2023-05-10T13:18:26;99922.50;;;18.25;41.18
73501;BME280;61721;42.206;25.320;2023-05-10T13:21:02;99922.34;;;18.66;40.92
73501;BME280;61721;42.206;25.320;2023-05-10T13:23:39;99920.69;;;18.65;40.96
73501;BME280;61721;42.206;25.320;2023-05-10T13:26:15;99914.94;;;19.12;40.14
73501;BME280;61721;42.206;25.320;2023-05-10T13:28:51;99919.81;;;18.51;40.92
73501;BME280;61721;42.206;25.320;2023-05-10T13:31:31;99911.00;;;18.29;40.29
73501;BME280;61721;42.206;25.320;2023-05-10T13:34:07;99915.66;;;17.61;43.05
73501;BME280;61721;42.206;25.320;2023-05-10T13:36:58;99911.63;;;18.18;42.47
73501;BME280;61721;42.206;25.320;2023-05-10T13:39:34;99919.81;;;18.38;40.86
73501;BME280;61721;42.206;25.320;2023-05-10T13:42:11;99909.53;;;18.86;39.60
73501;BME280;61721;42.206;25.320;2023-05-10T13:44:47;99910.56;;;18.59;40.75